sensor_id;sensor_type;location;lat;lon;timestamp;temperature;humidity
42965;DHT22;28604;51.204;22.552;2023-03-17T00:01:19;2.00;69.50
42965;DHT22;28604;51.204;22.552;2023-03-17T00:03:46;2.00;69.80
42965;DHT22;28604;51.204;22.552;2023-03-17T00:06:24;1.90;70.00
42965;DHT22;28604;51.204;22.552;2023-03-17T00:08:52;1.90;69.70
42965;DHT22;28604;51.204;22.552;2023-03-17T00:11:18;1.90;70.40
42965;DHT22;28604;51.204;22.552;2023-03-17T00:13:46;1.90;70.60
42965;DHT22;28604;51.204;22.552;2023-03-17T00:16:33;1.90;70.30
42965;DHT22;28604;51.204;22.552;2023-03-17T00:19:01;1.90;70.30
42965;DHT22;28604;51.204;22.552;2023-03-17T00:21:30;1.90;69.90
42965;DHT22;28604;51.204;22.552;2023-03-17T00:23:57;1.80;70.00
42965;DHT22;28604;51.204;22.552;2023-03-17T00:26:23;1.80;70.70
42965;DHT22;28604;51.204;22.552;2023-03-17T00:28:50;1.80;71.30
42965;DHT22;28604;51.204;22.552;2023-03-17T00:31:18;1.80;71.10
42965;DHT22;28604;51.204;22.552;2023-03-17T00:33:47;1.80;70.90
42965;DHT22;28604;51.204;22.552;2023-03-17T00:36:19;1.80;71.20
42965;DHT22;28604;51.204;22.552;2023-03-17T00:38:46;1.70;73.70
42965;DHT22;28604;51.204;22.552;2023-03-17T00:41:12;1.80;73.10
42965;DHT22;28604;51.204;22.552;2023-03-17T00:43:39;1.80;73.70
42965;DHT22;28604;51.204;22.552;2023-03-17T00:48:43;1.80;72.50
42965;DHT22;28604;51.204;22.552;2023-03-17T00:51:11;1.80;72.40
42965;DHT22;28604;51.204;22.552;2023-03-17T00:53:37;1.80;72.60
42965;DHT22;28604;51.204;22.552;2023-03-17T00:56:09;1.80;72.40
42965;DHT22;28604;51.204;22.552;2023-03-17T00:58:35;1.80;72.30
42965;DHT22;28604;51.204;22.552;2023-03-17T01:01:02;1.70;72.70
42965;DHT22;28604;51.204;22.552;2023-03-17T01:03:28;1.70;72.10
42965;DHT22;28604;51.204;22.552;2023-03-17T01:05:54;1.80;73.10
42965;DHT22;28604;51.204;22.552;2023-03-17T01:08:24;1.80;72.80
42965;DHT22;28604;51.204;22.552;2023-03-17T01:10:51;1.80;73.20
42965;DHT22;28604;51.204;22.552;2023-03-17T01:13:18;1.80;73.00
42965;DHT22;28604;51.204;22.552;2023-03-17T01:15:46;1.80;73.50
42965;DHT22;28604;51.204;22.552;2023-03-17T01:18:14;1.70;73.00
42965;DHT22;28604;51.204;22.552;2023-03-17T01:20:41;1.80;72.90
42965;DHT22;28604;51.204;22.552;2023-03-17T01:23:08;1.70;73.30
42965;DHT22;28604;51.204;22.552;2023-03-17T01:25:34;1.80;73.00
42965;DHT22;28604;51.204;22.552;2023-03-17T01:28:00;1.80;72.80
42965;DHT22;28604;51.204;22.552;2023-03-17T01:32:54;1.70;71.80
42965;DHT22;28604;51.204;22.552;2023-03-17T01:35:21;1.60;71.30
42965;DHT22;28604;51.204;22.552;2023-03-17T01:37:47;1.60;71.20
42965;DHT22;28604;51.204;22.552;2023-03-17T01:40:19;1.60;72.00
42965;DHT22;28604;51.204;22.552;2023-03-17T01:42:52;1.60;72.40
42965;DHT22;28604;51.204;22.552;2023-03-17T01:48:24;1.50;71.20
42965;DHT22;28604;51.204;22.552;2023-03-17T01:50:51;1.50;71.00
42965;DHT22;28604;51.204;22.552;2023-03-17T01:53:20;1.40;70.60
42965;DHT22;28604;51.204;22.552;2023-03-17T01:55:48;1.30;70.90
42965;DHT22;28604;51.204;22.552;2023-03-17T01:58:19;1.30;70.30
42965;DHT22;28604;51.204;22.552;2023-03-17T02:00:46;1.20;70.00
42965;DHT22;28604;51.204;22.552;2023-03-17T02:03:12;1.20;69.90
42965;DHT22;28604;51.204;22.552;2023-03-17T02:05:38;1.10;70.80
42965;DHT22;28604;51.204;22.552;2023-03-17T02:08:11;1.10;71.00
42965;DHT22;28604;51.204;22.552;2023-03-17T02:10:37;1.10;70.40
42965;DHT22;28604;51.204;22.552;2023-03-17T02:13:04;1.00;70.60
42965;DHT22;28604;51.204;22.552;2023-03-17T02:15:46;1.00;72.60
42965;DHT22;28604;51.204;22.552;2023-03-17T02:18:20;1.00;72.60
42965;DHT22;28604;51.204;22.552;2023-03-17T02:23:20;1.10;72.20
42965;DHT22;28604;51.204;22.552;2023-03-17T02:25:51;1.10;73.20
42965;DHT22;28604;51.204;22.552;2023-03-17T02:28:22;1.10;73.20
42965;DHT22;28604;51.204;22.552;2023-03-17T02:30:48;1.10;73.10
42965;DHT22;28604;51.204;22.552;2023-03-17T02:33:16;1.10;73.30
42965;DHT22;28604;51.204;22.552;2023-03-17T02:35:42;1.10;72.10
42965;DHT22;28604;51.204;22.552;2023-03-17T02:38:08;1.10;72.70
42965;DHT22;28604;51.204;22.552;2023-03-17T02:40:35;1.00;72.20
42965;DHT22;28604;51.204;22.552;2023-03-17T02:43:01;1.00;72.10
42965;DHT22;28604;51.204;22.552;2023-03-17T02:45:28;1.00;71.80
42965;DHT22;28604;51.204;22.552;2023-03-17T02:47:55;1.00;71.60
42965;DHT22;28604;51.204;22.552;2023-03-17T02:50:26;0.90;71.50
42965;DHT22;28604;51.204;22.552;2023-03-17T02:52:53;0.90;72.60
42965;DHT22;28604;51.204;22.552;2023-03-17T02:55:19;0.90;72.30
42965;DHT22;28604;51.204;22.552;2023-03-17T02:57:45;0.90;72.40
42965;DHT22;28604;51.204;22.552;2023-03-17T03:00:12;0.90;72.10
42965;DHT22;28604;51.204;22.552;2023-03-17T03:02:39;0.90;71.70
42965;DHT22;28604;51.204;22.552;2023-03-17T03:05:06;0.90;71.70
42965;DHT22;28604;51.204;22.552;2023-03-17T03:07:33;0.80;71.40
42965;DHT22;28604;51.204;22.552;2023-03-17T03:09:59;0.80;72.60
42965;DHT22;28604;51.204;22.552;2023-03-17T03:12:27;0.80;71.60
42965;DHT22;28604;51.204;22.552;2023-03-17T03:14:53;0.70;71.60
42965;DHT22;28604;51.204;22.552;2023-03-17T03:17:19;0.70;71.70
42965;DHT22;28604;51.204;22.552;2023-03-17T03:19:46;0.70;71.50
42965;DHT22;28604;51.204;22.552;2023-03-17T03:22:12;0.70;71.60
42965;DHT22;28604;51.204;22.552;2023-03-17T03:24:38;0.60;71.10
42965;DHT22;28604;51.204;22.552;2023-03-17T03:27:04;0.60;71.60
42965;DHT22;28604;51.204;22.552;2023-03-17T03:29:30;0.60;72.00
42965;DHT22;28604;51.204;22.552;2023-03-17T03:31:56;0.60;71.90
42965;DHT22;28604;51.204;22.552;2023-03-17T03:34:21;0.60;72.20
42965;DHT22;28604;51.204;22.552;2023-03-17T03:36:47;0.60;72.00
42965;DHT22;28604;51.204;22.552;2023-03-17T03:39:13;0.60;72.20
42965;DHT22;28604;51.204;22.552;2023-03-17T03:41:39;0.60;72.00
42965;DHT22;28604;51.204;22.552;2023-03-17T03:44:05;0.60;72.00
42965;DHT22;28604;51.204;22.552;2023-03-17T03:46:31;0.60;71.90
42965;DHT22;28604;51.204;22.552;2023-03-17T03:48:57;0.60;71.90
42965;DHT22;28604;51.204;22.552;2023-03-17T03:51:23;0.60;71.60
42965;DHT22;28604;51.204;22.552;2023-03-17T03:53:49;0.60;71.70
42965;DHT22;28604;51.204;22.552;2023-03-17T03:56:15;0.60;72.20
42965;DHT22;28604;51.204;22.552;2023-03-17T03:58:41;0.60;72.00
42965;DHT22;28604;51.204;22.552;2023-03-17T04:01:08;0.60;72.20
42965;DHT22;28604;51.204;22.552;2023-03-17T04:03:37;0.60;71.70
42965;DHT22;28604;51.204;22.552;2023-03-17T04:06:04;0.60;71.90
42965;DHT22;28604;51.204;22.552;2023-03-17T04:08:30;0.60;71.90
42965;DHT22;28604;51.204;22.552;2023-03-17T04:10:57;0.60;72.60
42965;DHT22;28604;51.204;22.552;2023-03-17T04:13:23;0.60;72.80
42965;DHT22;28604;51.204;22.552;2023-03-17T04:15:49;0.60;73.20
42965;DHT22;28604;51.204;22.552;2023-03-17T04:18:15;0.60;73.70
42965;DHT22;28604;51.204;22.552;2023-03-17T04:20:41;0.70;73.30
42965;DHT22;28604;51.204;22.552;2023-03-17T04:23:07;0.70;72.90
42965;DHT22;28604;51.204;22.552;2023-03-17T04:25:33;0.70;74.00
42965;DHT22;28604;51.204;22.552;2023-03-17T04:27:59;0.60;74.00
42965;DHT22;28604;51.204;22.552;2023-03-17T04:30:25;0.60;73.50
42965;DHT22;28604;51.204;22.552;2023-03-17T04:32:51;0.60;73.40
42965;DHT22;28604;51.204;22.552;2023-03-17T04:35:19;0.60;73.90
42965;DHT22;28604;51.204;22.552;2023-03-17T04:37:47;0.60;73.70
42965;DHT22;28604;51.204;22.552;2023-03-17T04:40:16;0.60;73.80
42965;DHT22;28604;51.204;22.552;2023-03-17T04:42:42;0.60;73.80
42965;DHT22;28604;51.204;22.552;2023-03-17T04:45:10;0.60;73.90
42965;DHT22;28604;51.204;22.552;2023-03-17T04:47:36;0.60;73.70
42965;DHT22;28604;51.204;22.552;2023-03-17T04:50:03;0.50;73.60
42965;DHT22;28604;51.204;22.552;2023-03-17T04:52:29;0.60;73.50
42965;DHT22;28604;51.204;22.552;2023-03-17T04:54:56;0.60;73.60
42965;DHT22;28604;51.204;22.552;2023-03-17T04:57:22;0.60;73.60
42965;DHT22;28604;51.204;22.552;2023-03-17T04:59:49;0.50;73.40
42965;DHT22;28604;51.204;22.552;2023-03-17T05:02:15;0.60;73.20
42965;DHT22;28604;51.204;22.552;2023-03-17T05:04:44;0.50;73.20
42965;DHT22;28604;51.204;22.552;2023-03-17T05:07:10;0.50;73.20
42965;DHT22;28604;51.204;22.552;2023-03-17T05:09:37;0.50;73.20
42965;DHT22;28604;51.204;22.552;2023-03-17T05:12:03;0.50;73.20
42965;DHT22;28604;51.204;22.552;2023-03-17T05:14:29;0.50;74.10
42965;DHT22;28604;51.204;22.552;2023-03-17T05:16:55;0.60;73.80
42965;DHT22;28604;51.204;22.552;2023-03-17T05:19:21;0.60;73.50
42965;DHT22;28604;51.204;22.552;2023-03-17T05:21:47;0.60;73.00
42965;DHT22;28604;51.204;22.552;2023-03-17T05:24:13;0.70;73.00
42965;DHT22;28604;51.204;22.552;2023-03-17T05:26:39;0.70;73.00
42965;DHT22;28604;51.204;22.552;2023-03-17T05:29:05;0.80;72.50
42965;DHT22;28604;51.204;22.552;2023-03-17T05:31:31;0.80;75.20
42965;DHT22;28604;51.204;22.552;2023-03-17T05:33:58;0.80;76.60
42965;DHT22;28604;51.204;22.552;2023-03-17T05:36:24;0.90;78.50
42965;DHT22;28604;51.204;22.552;2023-03-17T05:38:50;0.90;77.00
42965;DHT22;28604;51.204;22.552;2023-03-17T05:41:16;1.00;78.30
42965;DHT22;28604;51.204;22.552;2023-03-17T05:43:42;1.10;76.80
42965;DHT22;28604;51.204;22.552;2023-03-17T05:46:08;1.10;78.00
42965;DHT22;28604;51.204;22.552;2023-03-17T05:48:35;1.20;78.10
42965;DHT22;28604;51.204;22.552;2023-03-17T05:51:01;1.30;77.00
42965;DHT22;28604;51.204;22.552;2023-03-17T05:53:27;1.40;79.30
42965;DHT22;28604;51.204;22.552;2023-03-17T05:55:54;1.50;78.30
42965;DHT22;28604;51.204;22.552;2023-03-17T05:58:21;1.60;78.90
42965;DHT22;28604;51.204;22.552;2023-03-17T06:00:47;1.80;79.10
42965;DHT22;28604;51.204;22.552;2023-03-17T06:03:13;2.00;79.80
42965;DHT22;28604;51.204;22.552;2023-03-17T06:05:39;2.20;79.50
42965;DHT22;28604;51.204;22.552;2023-03-17T06:08:05;2.30;78.70
42965;DHT22;28604;51.204;22.552;2023-03-17T06:10:31;2.60;78.80
42965;DHT22;28604;51.204;22.552;2023-03-17T06:12:58;2.70;78.50
42965;DHT22;28604;51.204;22.552;2023-03-17T06:15:24;3.00;78.40
42965;DHT22;28604;51.204;22.552;2023-03-17T06:17:50;3.10;78.40
42965;DHT22;28604;51.204;22.552;2023-03-17T06:20:17;3.30;77.60
42965;DHT22;28604;51.204;22.552;2023-03-17T06:22:44;3.60;78.60
42965;DHT22;28604;51.204;22.552;2023-03-17T06:25:10;3.80;77.80
42965;DHT22;28604;51.204;22.552;2023-03-17T06:27:37;4.10;77.30
42965;DHT22;28604;51.204;22.552;2023-03-17T06:30:07;4.30;77.30
42965;DHT22;28604;51.204;22.552;2023-03-17T06:32:33;4.60;76.90
42965;DHT22;28604;51.204;22.552;2023-03-17T06:35:00;4.90;76.80
42965;DHT22;28604;51.204;22.552;2023-03-17T06:37:27;5.20;75.80
42965;DHT22;28604;51.204;22.552;2023-03-17T06:39:54;5.50;75.80
42965;DHT22;28604;51.204;22.552;2023-03-17T06:42:22;5.80;74.80
42965;DHT22;28604;51.204;22.552;2023-03-17T06:44:48;6.00;73.50
42965;DHT22;28604;51.204;22.552;2023-03-17T06:47:18;6.30;73.00
42965;DHT22;28604;51.204;22.552;2023-03-17T06:49:44;6.60;72.70
42965;DHT22;28604;51.204;22.552;2023-03-17T06:52:10;6.90;71.80
42965;DHT22;28604;51.204;22.552;2023-03-17T06:54:37;7.30;70.70
42965;DHT22;28604;51.204;22.552;2023-03-17T06:57:04;7.50;69.90
42965;DHT22;28604;51.204;22.552;2023-03-17T06:59:29;7.70;68.50
42965;DHT22;28604;51.204;22.552;2023-03-17T07:01:55;8.10;68.00
42965;DHT22;28604;51.204;22.552;2023-03-17T07:04:22;8.50;67.10
42965;DHT22;28604;51.204;22.552;2023-03-17T07:06:48;8.70;65.90
42965;DHT22;28604;51.204;22.552;2023-03-17T07:09:14;9.10;65.00
42965;DHT22;28604;51.204;22.552;2023-03-17T07:11:41;9.40;64.70
42965;DHT22;28604;51.204;22.552;2023-03-17T07:14:07;9.80;63.60
42965;DHT22;28604;51.204;22.552;2023-03-17T07:16:33;10.10;62.60
42965;DHT22;28604;51.204;22.552;2023-03-17T07:18:59;10.40;62.30
42965;DHT22;28604;51.204;22.552;2023-03-17T07:21:26;10.50;60.50
42965;DHT22;28604;51.204;22.552;2023-03-17T07:23:52;10.90;60.30
42965;DHT22;28604;51.204;22.552;2023-03-17T07:26:18;11.20;59.90
42965;DHT22;28604;51.204;22.552;2023-03-17T07:28:44;11.50;59.90
42965;DHT22;28604;51.204;22.552;2023-03-17T07:31:10;11.80;59.50
42965;DHT22;28604;51.204;22.552;2023-03-17T07:33:39;12.00;57.00
42965;DHT22;28604;51.204;22.552;2023-03-17T07:36:06;12.30;56.30
42965;DHT22;28604;51.204;22.552;2023-03-17T07:38:33;12.40;54.80
42965;DHT22;28604;51.204;22.552;2023-03-17T07:40:59;12.80;55.30
42965;DHT22;28604;51.204;22.552;2023-03-17T07:43:25;12.80;55.20
42965;DHT22;28604;51.204;22.552;2023-03-17T07:45:51;13.10;53.70
42965;DHT22;28604;51.204;22.552;2023-03-17T07:48:17;13.10;54.00
42965;DHT22;28604;51.204;22.552;2023-03-17T07:50:44;13.20;54.00
42965;DHT22;28604;51.204;22.552;2023-03-17T07:53:10;13.10;52.80
42965;DHT22;28604;51.204;22.552;2023-03-17T07:55:36;13.10;52.70
42965;DHT22;28604;51.204;22.552;2023-03-17T07:58:04;13.40;53.00
42965;DHT22;28604;51.204;22.552;2023-03-17T08:00:30;13.40;52.50
42965;DHT22;28604;51.204;22.552;2023-03-17T08:02:56;13.70;52.30
42965;DHT22;28604;51.204;22.552;2023-03-17T08:05:23;13.70;51.20
42965;DHT22;28604;51.204;22.552;2023-03-17T08:07:50;13.80;50.40
42965;DHT22;28604;51.204;22.552;2023-03-17T08:10:16;13.90;50.50
42965;DHT22;28604;51.204;22.552;2023-03-17T08:12:42;14.50;50.80
42965;DHT22;28604;51.204;22.552;2023-03-17T08:15:09;14.80;50.20
42965;DHT22;28604;51.204;22.552;2023-03-17T08:17:35;14.90;48.30
42965;DHT22;28604;51.204;22.552;2023-03-17T08:20:03;14.60;47.00
42965;DHT22;28604;51.204;22.552;2023-03-17T08:22:29;14.40;49.10
42965;DHT22;28604;51.204;22.552;2023-03-17T08:24:56;14.60;49.60
42965;DHT22;28604;51.204;22.552;2023-03-17T08:27:23;14.70;48.70
42965;DHT22;28604;51.204;22.552;2023-03-17T08:29:49;14.70;47.90
42965;DHT22;28604;51.204;22.552;2023-03-17T08:32:15;14.70;48.80
42965;DHT22;28604;51.204;22.552;2023-03-17T08:34:42;14.80;49.00
42965;DHT22;28604;51.204;22.552;2023-03-17T08:37:09;15.00;48.30
42965;DHT22;28604;51.204;22.552;2023-03-17T08:39:35;15.00;48.00
42965;DHT22;28604;51.204;22.552;2023-03-17T08:42:02;15.30;47.10
42965;DHT22;28604;51.204;22.552;2023-03-17T08:44:29;14.90;46.80
42965;DHT22;28604;51.204;22.552;2023-03-17T08:46:55;14.80;46.50
42965;DHT22;28604;51.204;22.552;2023-03-17T08:49:22;15.00;47.80
42965;DHT22;28604;51.204;22.552;2023-03-17T08:51:47;15.20;46.20
42965;DHT22;28604;51.204;22.552;2023-03-17T08:54:13;14.80;46.00
42965;DHT22;28604;51.204;22.552;2023-03-17T08:56:40;15.10;47.30
42965;DHT22;28604;51.204;22.552;2023-03-17T08:59:08;15.10;45.90
42965;DHT22;28604;51.204;22.552;2023-03-17T09:01:34;15.40;46.70
42965;DHT22;28604;51.204;22.552;2023-03-17T09:04:00;15.70;45.30
42965;DHT22;28604;51.204;22.552;2023-03-17T09:06:27;16.00;45.30
42965;DHT22;28604;51.204;22.552;2023-03-17T09:08:53;15.90;45.20
42965;DHT22;28604;51.204;22.552;2023-03-17T09:11:25;16.30;46.00
42965;DHT22;28604;51.204;22.552;2023-03-17T09:13:53;16.60;45.30
42965;DHT22;28604;51.204;22.552;2023-03-17T09:16:19;16.60;44.50
42965;DHT22;28604;51.204;22.552;2023-03-17T09:18:47;16.60;44.80
42965;DHT22;28604;51.204;22.552;2023-03-17T09:21:14;16.50;44.10
42965;DHT22;28604;51.204;22.552;2023-03-17T09:23:41;16.50;44.20
42965;DHT22;28604;51.204;22.552;2023-03-17T09:26:07;16.50;44.60
42965;DHT22;28604;51.204;22.552;2023-03-17T09:28:33;16.30;44.40
42965;DHT22;28604;51.204;22.552;2023-03-17T09:31:03;15.40;43.70
42965;DHT22;28604;51.204;22.552;2023-03-17T09:33:29;15.20;44.70
42965;DHT22;28604;51.204;22.552;2023-03-17T09:35:56;15.10;44.60
42965;DHT22;28604;51.204;22.552;2023-03-17T09:38:23;14.80;44.40
42965;DHT22;28604;51.204;22.552;2023-03-17T09:40:59;14.70;44.80
42965;DHT22;28604;51.204;22.552;2023-03-17T09:43:45;14.60;45.20
42965;DHT22;28604;51.204;22.552;2023-03-17T09:49:06;14.40;46.30
42965;DHT22;28604;51.204;22.552;2023-03-17T09:51:32;14.30;45.00
42965;DHT22;28604;51.204;22.552;2023-03-17T09:54:03;14.00;44.00
42965;DHT22;28604;51.204;22.552;2023-03-17T09:56:33;14.30;45.30
42965;DHT22;28604;51.204;22.552;2023-03-17T09:59:06;14.70;46.30
42965;DHT22;28604;51.204;22.552;2023-03-17T10:01:32;14.90;44.40
42965;DHT22;28604;51.204;22.552;2023-03-17T10:03:58;15.10;45.10
42965;DHT22;28604;51.204;22.552;2023-03-17T10:08:58;14.90;43.60
42965;DHT22;28604;51.204;22.552;2023-03-17T10:11:42;15.00;44.40
42965;DHT22;28604;51.204;22.552;2023-03-17T10:14:45;15.10;44.90
42965;DHT22;28604;51.204;22.552;2023-03-17T10:17:18;15.10;44.60
42965;DHT22;28604;51.204;22.552;2023-03-17T10:22:50;15.20;44.10
42965;DHT22;28604;51.204;22.552;2023-03-17T10:25:31;15.10;43.90
42965;DHT22;28604;51.204;22.552;2023-03-17T10:30:51;15.30;41.60
42965;DHT22;28604;51.204;22.552;2023-03-17T10:33:18;15.20;43.30
42965;DHT22;28604;51.204;22.552;2023-03-17T10:35:44;15.20;43.80
42965;DHT22;28604;51.204;22.552;2023-03-17T10:38:18;15.60;43.30
42965;DHT22;28604;51.204;22.552;2023-03-17T10:41:00;16.10;42.10
42965;DHT22;28604;51.204;22.552;2023-03-17T10:43:30;16.30;43.10
42965;DHT22;28604;51.204;22.552;2023-03-17T10:46:02;16.70;42.10
42965;DHT22;28604;51.204;22.552;2023-03-17T10:48:34;16.80;41.00
42965;DHT22;28604;51.204;22.552;2023-03-17T10:51:06;17.00;40.90
42965;DHT22;28604;51.204;22.552;2023-03-17T10:53:37;16.80;42.00
42965;DHT22;28604;51.204;22.552;2023-03-17T10:56:18;16.40;40.60
42965;DHT22;28604;51.204;22.552;2023-03-17T10:58:49;16.30;42.00
42965;DHT22;28604;51.204;22.552;2023-03-17T11:01:20;16.00;41.20
42965;DHT22;28604;51.204;22.552;2023-03-17T11:03:48;16.00;42.00
42965;DHT22;28604;51.204;22.552;2023-03-17T11:06:16;15.80;41.20
42965;DHT22;28604;51.204;22.552;2023-03-17T11:08:50;15.50;41.60
42965;DHT22;28604;51.204;22.552;2023-03-17T11:11:29;15.00;42.10
42965;DHT22;28604;51.204;22.552;2023-03-17T11:14:03;14.90;41.70
42965;DHT22;28604;51.204;22.552;2023-03-17T11:16:31;15.20;42.90
42965;DHT22;28604;51.204;22.552;2023-03-17T11:18:59;15.10;41.90
42965;DHT22;28604;51.204;22.552;2023-03-17T11:21:29;14.90;42.30
42965;DHT22;28604;51.204;22.552;2023-03-17T11:29:48;14.50;42.50
42965;DHT22;28604;51.204;22.552;2023-03-17T11:32:35;14.70;42.70
42965;DHT22;28604;51.204;22.552;2023-03-17T11:35:23;14.80;42.90
42965;DHT22;28604;51.204;22.552;2023-03-17T11:38:34;14.60;41.50
42965;DHT22;28604;51.204;22.552;2023-03-17T11:49:27;13.80;43.20
42965;DHT22;28604;51.204;22.552;2023-03-17T11:57:37;13.80;42.60
42965;DHT22;28604;51.204;22.552;2023-03-17T12:05:29;13.90;43.20
42965;DHT22;28604;51.204;22.552;2023-03-17T12:08:30;13.80;44.00
42965;DHT22;28604;51.204;22.552;2023-03-17T12:11:00;13.80;43.60
42965;DHT22;28604;51.204;22.552;2023-03-17T12:13:40;13.90;43.30
42965;DHT22;28604;51.204;22.552;2023-03-17T12:16:08;14.20;42.60
42965;DHT22;28604;51.204;22.552;2023-03-17T12:18:59;13.70;42.20
42965;DHT22;28604;51.204;22.552;2023-03-17T12:21:36;13.30;43.00
42965;DHT22;28604;51.204;22.552;2023-03-17T12:24:14;13.30;43.00
42965;DHT22;28604;51.204;22.552;2023-03-17T12:27:02;13.30;43.10
42965;DHT22;28604;51.204;22.552;2023-03-17T12:29:46;13.60;43.00
42965;DHT22;28604;51.204;22.552;2023-03-17T12:32:45;13.80;41.80
42965;DHT22;28604;51.204;22.552;2023-03-17T12:35:26;13.50;42.60
42965;DHT22;28604;51.204;22.552;2023-03-17T12:37:55;13.50;42.40
42965;DHT22;28604;51.204;22.552;2023-03-17T12:40:44;13.40;43.10
42965;DHT22;28604;51.204;22.552;2023-03-17T12:48:49;13.10;42.40
42965;DHT22;28604;51.204;22.552;2023-03-17T12:51:36;13.00;42.70
42965;DHT22;28604;51.204;22.552;2023-03-17T12:54:19;13.00;43.50
42965;DHT22;28604;51.204;22.552;2023-03-17T12:56:47;13.00;42.90
42965;DHT22;28604;51.204;22.552;2023-03-17T12:59:19;12.90;42.70
42965;DHT22;28604;51.204;22.552;2023-03-17T13:01:57;13.10;43.80
42965;DHT22;28604;51.204;22.552;2023-03-17T13:04:32;13.50;44.80
42965;DHT22;28604;51.204;22.552;2023-03-17T13:08:08;13.60;43.40
42965;DHT22;28604;51.204;22.552;2023-03-17T13:13:12;13.00;43.20
42965;DHT22;28604;51.204;22.552;2023-03-17T13:25:59;12.90;44.00
42965;DHT22;28604;51.204;22.552;2023-03-17T13:28:40;13.00;44.50
42965;DHT22;28604;51.204;22.552;2023-03-17T13:31:29;12.90;45.10
42965;DHT22;28604;51.204;22.552;2023-03-17T13:34:11;12.90;45.00
42965;DHT22;28604;51.204;22.552;2023-03-17T13:36:50;13.00;43.80
42965;DHT22;28604;51.204;22.552;2023-03-17T13:39:33;12.80;43.50
42965;DHT22;28604;51.204;22.552;2023-03-17T13:47:39;13.00;45.20
42965;DHT22;28604;51.204;22.552;2023-03-17T13:50:29;13.10;45.40
42965;DHT22;28604;51.204;22.552;2023-03-17T13:53:07;13.00;45.10
42965;DHT22;28604;51.204;22.552;2023-03-17T13:55:41;12.90;45.80
42965;DHT22;28604;51.204;22.552;2023-03-17T14:00:39;12.60;45.00
42965;DHT22;28604;51.204;22.552;2023-03-17T14:03:22;12.60;45.80
42965;DHT22;28604;51.204;22.552;2023-03-17T14:05:53;12.60;45.80
42965;DHT22;28604;51.204;22.552;2023-03-17T14:10:53;12.80;46.80
42965;DHT22;28604;51.204;22.552;2023-03-17T14:16:27;12.60;46.50
42965;DHT22;28604;51.204;22.552;2023-03-17T14:19:00;12.70;46.30
42965;DHT22;28604;51.204;22.552;2023-03-17T14:21:33;12.80;46.40
42965;DHT22;28604;51.204;22.552;2023-03-17T14:24:19;12.80;45.90
42965;DHT22;28604;51.204;22.552;2023-03-17T14:26:46;12.90;46.10
42965;DHT22;28604;51.204;22.552;2023-03-17T14:29:15;12.60;45.60
42965;DHT22;28604;51.204;22.552;2023-03-17T14:32:02;12.60;45.50
42965;DHT22;28604;51.204;22.552;2023-03-17T14:34:29;12.60;46.00
42965;DHT22;28604;51.204;22.552;2023-03-17T14:37:02;12.40;45.80
42965;DHT22;28604;51.204;22.552;2023-03-17T14:39:29;12.20;45.40
42965;DHT22;28604;51.204;22.552;2023-03-17T14:42:02;12.00;45.80
42965;DHT22;28604;51.204;22.552;2023-03-17T14:44:37;11.80;46.90
42965;DHT22;28604;51.204;22.552;2023-03-17T14:47:06;11.80;47.10
42965;DHT22;28604;51.204;22.552;2023-03-17T14:49:37;11.80;47.40
42965;DHT22;28604;51.204;22.552;2023-03-17T14:52:03;11.70;47.70
42965;DHT22;28604;51.204;22.552;2023-03-17T14:54:32;11.70;47.90
42965;DHT22;28604;51.204;22.552;2023-03-17T14:57:01;11.60;47.40
42965;DHT22;28604;51.204;22.552;2023-03-17T14:59:43;11.50;47.70
42965;DHT22;28604;51.204;22.552;2023-03-17T15:02:33;11.50;48.80
42965;DHT22;28604;51.204;22.552;2023-03-17T15:05:22;11.50;48.70
42965;DHT22;28604;51.204;22.552;2023-03-17T15:07:49;11.50;48.90
42965;DHT22;28604;51.204;22.552;2023-03-17T15:10:21;11.60;48.80
42965;DHT22;28604;51.204;22.552;2023-03-17T15:12:47;11.60;48.20
42965;DHT22;28604;51.204;22.552;2023-03-17T15:15:24;11.50;47.70
42965;DHT22;28604;51.204;22.552;2023-03-17T15:17:54;11.40;47.80
42965;DHT22;28604;51.204;22.552;2023-03-17T15:20:21;11.30;48.00
42965;DHT22;28604;51.204;22.552;2023-03-17T15:22:56;11.40;48.80
42965;DHT22;28604;51.204;22.552;2023-03-17T15:25:46;11.30;48.20
42965;DHT22;28604;51.204;22.552;2023-03-17T15:28:13;11.20;48.80
42965;DHT22;28604;51.204;22.552;2023-03-17T15:30:44;11.20;48.50
42965;DHT22;28604;51.204;22.552;2023-03-17T15:35:54;10.80;48.80
42965;DHT22;28604;51.204;22.552;2023-03-17T15:38:22;10.70;49.30
42965;DHT22;28604;51.204;22.552;2023-03-17T15:40:48;10.70;49.20
42965;DHT22;28604;51.204;22.552;2023-03-17T15:43:16;10.50;49.20
42965;DHT22;28604;51.204;22.552;2023-03-17T15:45:42;10.30;49.40
42965;DHT22;28604;51.204;22.552;2023-03-17T15:48:20;10.10;49.90
42965;DHT22;28604;51.204;22.552;2023-03-17T15:50:49;10.10;50.30
42965;DHT22;28604;51.204;22.552;2023-03-17T15:53:16;10.00;50.00
42965;DHT22;28604;51.204;22.552;2023-03-17T15:55:42;9.80;50.60
42965;DHT22;28604;51.204;22.552;2023-03-17T15:58:08;9.70;50.70
42965;DHT22;28604;51.204;22.552;2023-03-17T16:00:35;9.60;51.20
42965;DHT22;28604;51.204;22.552;2023-03-17T16:05:48;9.30;51.70
42965;DHT22;28604;51.204;22.552;2023-03-17T16:08:15;9.20;52.60
42965;DHT22;28604;51.204;22.552;2023-03-17T16:10:43;9.20;52.60
42965;DHT22;28604;51.204;22.552;2023-03-17T16:13:10;9.00;53.20
42965;DHT22;28604;51.204;22.552;2023-03-17T16:15:38;8.90;53.50
42965;DHT22;28604;51.204;22.552;2023-03-17T16:18:10;8.80;54.10
42965;DHT22;28604;51.204;22.552;2023-03-17T16:20:42;8.70;54.00
42965;DHT22;28604;51.204;22.552;2023-03-17T16:23:15;8.70;54.60
42965;DHT22;28604;51.204;22.552;2023-03-17T16:25:42;8.60;54.70
42965;DHT22;28604;51.204;22.552;2023-03-17T16:28:17;8.50;55.00
42965;DHT22;28604;51.204;22.552;2023-03-17T16:30:44;8.40;55.30
42965;DHT22;28604;51.204;22.552;2023-03-17T16:33:22;8.40;55.80
42965;DHT22;28604;51.204;22.552;2023-03-17T16:35:48;8.40;55.80
42965;DHT22;28604;51.204;22.552;2023-03-17T16:38:19;8.20;56.30
42965;DHT22;28604;51.204;22.552;2023-03-17T16:40:47;8.20;56.60
42965;DHT22;28604;51.204;22.552;2023-03-17T16:43:26;8.10;56.90
42965;DHT22;28604;51.204;22.552;2023-03-17T16:45:54;8.00;56.80
42965;DHT22;28604;51.204;22.552;2023-03-17T16:48:20;8.00;57.10
42965;DHT22;28604;51.204;22.552;2023-03-17T16:50:46;7.90;57.30
42965;DHT22;28604;51.204;22.552;2023-03-17T16:53:12;7.80;57.80
42965;DHT22;28604;51.204;22.552;2023-03-17T16:55:39;7.70;58.40
42965;DHT22;28604;51.204;22.552;2023-03-17T16:58:18;7.70;58.50
42965;DHT22;28604;51.204;22.552;2023-03-17T17:00:45;7.60;58.70
42965;DHT22;28604;51.204;22.552;2023-03-17T17:03:12;7.60;59.30
42965;DHT22;28604;51.204;22.552;2023-03-17T17:05:39;7.60;59.30